Overview Statistics Trail Chart Weather Telemetry Raw packets
 

This is the latest recevied weather packets stored in our database for station/object IW1QLH-13. If no packets are shown the sender has not sent any weather packets the latest 10 day(s).

<< 12 13 14 15 16 17 18 >>
Time Temp. Humidity Pressure Rain* Wind** Luminosity Snow
1788430122 30.56° C 11% - - - 800 W/m² -
1788429510 30° C 11% - - - 772 W/m² -
1788428898 30° C 11% - - - 743 W/m² -
1788428287 30° C 11% - - - 715 W/m² -
1788427676 30° C 11% - - - 686 W/m² -
1788427064 30° C 11% - - - 657 W/m² -
1788426453 30° C 11% - - - 629 W/m² -
1788425842 30° C 11% - - - 586 W/m² -
1788425230 30° C 11% - - - 543 W/m² -
1788424619 30° C 11% - - - 529 W/m² -
1788424008 30.56° C 11% - - - 486 W/m² -
1788423393 30.56° C 11% - - - 429 W/m² -
1788422781 30° C 11% - - - 400 W/m² -
1788422170 30° C 11% - - - 371 W/m² -
1788421558 30° C 11% - - - 343 W/m² -
1788420947 30° C 11% - - - 286 W/m² -
1788420336 28.89° C 11% - - - 257 W/m² -
1788419664 28.89° C 11% - - - 157 W/m² -
1788418868 27.78° C 11% - - - 157 W/m² -
1788418256 27.78° C 11% - - - 114 W/m² -
1788417397 27.78° C 11% - - - 71 W/m² -
1788416786 25.56° C 11% - - - 71 W/m² -
1788416174 23.89° C 11% - - - 42 W/m² -
1788415564 22.78° C 11% - - - 42 W/m² -
1788414952 22.78° C 11% - - - 28 W/m² -

* Rain since midnight (hover to see other rain measurements)
** Current wind speed in m/s (hover to see current wind gust speed)